SGS weather

South St Paul Municipal Richard E Fleming field
South St Paul, Minnesota, United States

Public forecast

Using degrees Fahrenheit for public forecast. Weather courtesy of forecast.io.

METAR (pilot weather report)

Retrieved 2019/08/21 19:35 UTC (7 minutes ago):

KSGS 211935Z AUTO 28009KT 10SM CLR 24/09 A3005 RMK AO2 T02370088

TAF (pilot weather forecast)

Forecast is more than 12 hours old.

Closest forecast is St Paul Downtown Holman Field, 4.8 nm (8.9 km) NNW. Retrieved 2018/02/05 00:21 UTC (2 years ago):

TAF KSTP 052320Z 0600/0624 27006KT P6SM FEW020 FM060100 30010KT P6SM FEW100 FM061600 25004KT P6SM SCT250 FM061900 21006KT P6SM BKN250 AMD NOT SKED